Time;durP1;ratioP1;P1;durP2;ratioP2;P2;SDS_P1;SDS_P2;PMS_P1;PMS_P2;Temp;Humidity;BMP_temperature;BMP_pressure;BME280_temperature;BME280_humidity;BME280_pressure;Samples;Min_cycle;Max_cycle;Signal;HPM_P1;HPM_P2
2021/12/27 00:01:16;;;;;;;11.70;5.28;;;4.20;99.90;;;3.73;100.00;99752.56;5165266;28;20498;-67
2021/12/27 00:03:49;;;;;;;12.18;4.70;;;4.20;99.90;;;3.76;100.00;99750.13;5165137;28;20488;-67
2021/12/27 00:06:21;;;;;;;13.73;5.47;;;4.20;99.90;;;3.78;100.00;99757.13;5165483;28;20050;-68
2021/12/27 00:08:53;;;;;;;12.77;5.05;;;4.20;99.90;;;3.85;100.00;99754.78;5165250;28;20046;-67
2021/12/27 00:11:27;;;;;;;11.68;5.05;;;4.20;99.90;;;3.78;100.00;99740.75;5165165;28;20129;-67
2021/12/27 00:13:59;;;;;;;10.93;4.63;;;4.20;99.90;;;3.79;100.00;99740.84;5165211;28;20054;-68
2021/12/27 00:16:31;;;;;;;13.50;5.32;;;4.20;99.90;;;3.80;100.00;99739.13;5164678;28;20054;-68
2021/12/27 00:19:03;;;;;;;13.40;5.30;;;4.20;99.90;;;3.84;100.00;99733.28;5164991;28;20050;-67
2021/12/27 00:21:35;;;;;;;11.05;4.93;;;4.20;99.90;;;3.85;100.00;99735.06;5164832;28;20054;-67
2021/12/27 00:24:08;;;;;;;11.43;4.82;;;4.20;99.90;;;3.81;100.00;99728.00;5164391;28;20053;-68
2021/12/27 00:26:41;;;;;;;11.88;4.88;;;4.20;99.90;;;3.84;100.00;99728.13;5164700;28;20444;-67
2021/12/27 00:29:15;;;;;;;13.75;5.88;;;4.20;99.90;;;3.86;100.00;99725.66;5164789;28;20053;-67
2021/12/27 00:31:47;;;;;;;13.98;5.20;;;4.20;99.90;;;3.81;100.00;99715.13;5165989;28;20046;-66
2021/12/27 00:34:19;;;;;;;12.48;5.03;;;4.20;99.90;;;3.77;100.00;99716.66;5166095;28;20131;-68
2021/12/27 00:36:51;;;;;;;13.43;5.65;;;4.20;99.90;;;3.74;100.00;99721.69;5166450;28;20054;-68
2021/12/27 00:39:23;;;;;;;10.80;4.70;;;4.20;99.90;;;3.76;100.00;99725.22;5164142;28;20058;-68
2021/12/27 00:41:56;;;;;;;12.38;5.05;;;4.20;99.90;;;3.77;100.00;99731.25;5165230;28;20057;-68
2021/12/27 00:44:28;;;;;;;11.82;4.32;;;4.20;99.90;;;3.84;100.00;99735.84;5165643;28;20517;-67
2021/12/27 00:47:01;;;;;;;11.80;4.85;;;4.20;99.90;;;3.87;100.00;99738.59;5165507;28;20050;-68
2021/12/27 00:49:33;;;;;;;13.07;5.13;;;4.20;99.90;;;3.82;100.00;99729.75;5165806;28;20136;-68
2021/12/27 00:52:06;;;;;;;10.05;4.65;;;4.20;99.90;;;3.81;100.00;99728.88;5165600;28;20046;-68
2021/12/27 00:54:38;;;;;;;9.15;4.07;;;4.20;99.90;;;3.86;100.00;99723.94;5165561;28;20693;-68
2021/12/27 00:57:12;;;;;;;12.02;4.88;;;4.20;99.90;;;3.86;100.00;99734.25;5165301;28;20054;-68
2021/12/27 00:59:43;;;;;;;11.80;4.47;;;4.30;99.90;;;3.83;100.00;99723.78;5165356;28;20057;-68
2021/12/27 01:02:15;;;;;;;12.35;5.07;;;4.20;99.90;;;3.88;100.00;99719.72;5164960;28;20054;-68
2021/12/27 01:04:47;;;;;;;9.57;4.43;;;4.30;99.90;;;3.90;100.00;99719.78;5165436;28;20487;-67
2021/12/27 01:07:20;;;;;;;11.52;5.32;;;4.30;99.90;;;3.88;100.00;99719.72;5165338;28;20483;-66
2021/12/27 01:10:05;;;;;;;10.43;4.95;;;4.30;99.90;;;3.90;100.00;99718.09;5165050;28;20054;-65
2021/12/27 01:13:01;;;;;;;13.18;5.55;;;4.30;99.90;;;3.91;100.00;99724.13;5165733;28;20142;-68
2021/12/27 01:15:47;;;;;;;10.75;4.25;;;4.30;99.90;;;3.93;100.00;99718.25;5165107;28;20057;-68
2021/12/27 01:18:21;;;;;;;12.40;5.35;;;4.30;99.90;;;3.95;100.00;99713.16;5165029;28;20073;-68
2021/12/27 01:20:53;;;;;;;11.13;4.95;;;4.30;99.90;;;3.94;100.00;99707.09;5164908;28;20130;-68
2021/12/27 01:23:25;;;;;;;10.57;4.55;;;4.30;99.90;;;3.96;100.00;99708.03;5164544;28;20061;-68
2021/12/27 01:25:58;;;;;;;10.13;4.45;;;4.30;99.90;;;3.98;100.00;99698.69;5164929;28;20105;-68
2021/12/27 01:28:32;;;;;;;11.13;4.50;;;4.40;99.90;;;3.99;100.00;99697.00;5165242;28;20510;-68
2021/12/27 01:31:04;;;;;;;11.15;4.82;;;4.40;99.90;;;3.99;100.00;99697.88;5165162;28;20069;-68
2021/12/27 01:33:37;;;;;;;10.45;4.35;;;4.40;99.90;;;3.97;100.00;99691.75;5164952;28;20546;-68
2021/12/27 01:36:10;;;;;;;10.63;4.07;;;4.40;99.90;;;3.98;100.00;99693.53;5164706;28;20054;-65
2021/12/27 01:38:42;;;;;;;9.77;4.68;;;4.40;99.90;;;4.03;100.00;99704.91;5164484;28;20061;-68
2021/12/27 01:41:17;;;;;;;11.95;5.88;;;4.40;99.90;;;4.05;100.00;99703.31;5164540;28;20057;-68
2021/12/27 01:43:52;;;;;;;9.60;4.07;;;4.40;99.90;;;4.04;100.00;99698.06;5164737;28;20516;-68
2021/12/27 01:46:26;;;;;;;9.82;4.00;;;4.40;99.90;;;4.04;100.00;99695.47;5165019;28;20376;-67
2021/12/27 01:49:00;;;;;;;10.07;4.13;;;4.40;99.90;;;4.04;100.00;99695.47;5165093;28;20484;-67
2021/12/27 01:51:32;;;;;;;10.98;4.80;;;4.40;99.90;;;4.04;100.00;99706.72;5164725;28;20052;-68
2021/12/27 01:54:05;;;;;;;11.52;4.10;;;4.40;99.90;;;4.04;100.00;99703.22;5164342;28;20054;-68
2021/12/27 01:56:37;;;;;;;11.05;4.15;;;4.40;99.90;;;4.05;100.00;99705.88;5164346;28;20050;-67
2021/12/27 01:59:10;;;;;;;12.43;4.13;;;4.40;99.90;;;4.07;100.00;99709.41;5164460;28;20054;-67
2021/12/27 02:01:42;;;;;;;11.18;4.40;;;4.40;99.90;;;4.07;100.00;99703.38;5164311;28;20046;-65
2021/12/27 02:04:14;;;;;;;14.07;5.30;;;4.50;99.90;;;4.09;100.00;99700.03;5164575;28;20727;-68
2021/12/27 02:06:46;;;;;;;10.90;4.55;;;4.50;99.90;;;4.06;100.00;99694.75;5164373;28;20411;-68
2021/12/27 02:09:22;;;;;;;11.32;4.55;;;4.50;99.90;;;4.08;100.00;99700.84;5164332;28;20056;-68
2021/12/27 02:11:54;;;;;;;12.88;4.38;;;4.50;99.90;;;4.13;100.00;99700.19;5164418;28;20452;-67
2021/12/27 02:14:28;;;;;;;11.50;4.47;;;4.50;99.90;;;4.19;100.00;99697.84;5164305;28;20510;-67
2021/12/27 02:17:01;;;;;;;13.93;5.00;;;4.50;99.90;;;4.16;100.00;99703.75;5164409;28;20415;-68
2021/12/27 02:19:37;;;;;;;11.02;4.75;;;4.50;99.90;;;4.15;100.00;99698.53;5164565;28;20050;-68
2021/12/27 02:22:11;;;;;;;10.43;4.82;;;4.50;99.90;;;4.18;100.00;99698.69;5163792;28;20053;-66
2021/12/27 02:24:43;;;;;;;12.35;4.97;;;4.50;99.90;;;4.20;100.00;99691.88;5164302;28;20052;-68
2021/12/27 02:27:16;;;;;;;13.65;6.05;;;4.50;99.90;;;4.17;100.00;99686.56;5164094;28;20414;-68
2021/12/27 02:29:48;;;;;;;12.10;4.55;;;4.50;99.90;;;4.17;100.00;99687.44;5164771;28;20050;-68
2021/12/27 02:32:20;;;;;;;10.30;5.18;;;4.60;99.90;;;4.18;100.00;99678.03;5164331;28;20069;-68
2021/12/27 02:34:52;;;;;;;11.50;4.93;;;4.60;99.90;;;4.21;100.00;99683.31;5164147;28;20076;-68
2021/12/27 02:37:26;;;;;;;11.00;4.32;;;4.60;99.90;;;4.20;100.00;99681.56;5164236;28;20050;-68
2021/12/27 02:39:58;;;;;;;14.27;5.35;;;4.60;99.90;;;4.25;100.00;99680.94;5163919;28;20057;-68
2021/12/27 02:42:30;;;;;;;10.68;4.38;;;4.60;99.90;;;4.27;100.00;99675.84;5164104;28;20077;-68
2021/12/27 02:45:02;;;;;;;12.80;4.68;;;4.60;99.90;;;4.29;100.00;99677.66;5163891;28;20403;-68
2021/12/27 02:47:34;;;;;;;11.50;4.85;;;4.60;99.90;;;4.29;100.00;99679.34;5164145;28;20050;-68
2021/12/27 02:50:08;;;;;;;12.88;5.05;;;4.60;99.90;;;4.29;100.00;99669.91;5163693;28;20055;-68
2021/12/27 02:52:41;;;;;;;10.70;4.57;;;4.60;99.90;;;4.23;100.00;99666.19;5168164;28;20407;-68
2021/12/27 02:55:15;;;;;;;9.82;4.35;;;4.60;99.90;;;4.18;100.00;99672.88;5167493;28;20050;-66
2021/12/27 02:57:50;;;;;;;11.23;4.72;;;4.60;99.90;;;4.22;100.00;99675.63;5168026;28;20431;-66
2021/12/27 03:00:27;;;;;;;11.43;5.05;;;4.60;99.90;;;4.24;100.00;99680.88;5167833;28;20097;-68
2021/12/27 03:02:59;;;;;;;12.45;5.25;;;4.60;99.90;;;4.23;100.00;99663.63;5168002;28;20050;-68
2021/12/27 03:05:33;;;;;;;11.20;5.15;;;4.60;99.90;;;4.25;100.00;99659.44;5167599;28;20058;-65
2021/12/27 03:08:13;;;;;;;11.02;4.82;;;4.60;99.90;;;4.28;100.00;99656.97;5168163;28;20050;-68
2021/12/27 03:10:49;;;;;;;9.77;4.25;;;4.60;99.90;;;4.30;100.00;99663.97;5167435;28;20053;-68
2021/12/27 03:13:23;;;;;;;12.00;5.15;;;4.60;99.90;;;4.28;100.00;99654.38;5167659;28;20046;-67
2021/12/27 03:15:58;;;;;;;11.85;4.95;;;4.60;99.90;;;4.29;100.00;99659.59;5167449;28;20050;-68
2021/12/27 03:18:32;;;;;;;14.18;5.15;;;4.60;99.90;;;4.28;100.00;99659.53;5168042;28;20514;-65
2021/12/27 03:21:06;;;;;;;9.65;4.93;;;4.60;99.90;;;4.28;100.00;99656.97;5167066;28;20050;-66
2021/12/27 03:23:41;;;;;;;13.30;4.85;;;4.60;99.90;;;4.29;100.00;99654.44;5167611;28;20499;-68
2021/12/27 03:26:14;;;;;;;10.80;5.00;;;4.60;99.90;;;4.30;100.00;99657.91;5167684;28;20054;-67
2021/12/27 03:28:46;;;;;;;9.80;4.80;;;4.60;99.90;;;4.27;100.00;99648.34;5167500;28;20051;-68
2021/12/27 03:31:19;;;;;;;11.02;4.53;;;4.60;99.90;;;4.27;100.00;99648.34;5167413;28;20512;-68
2021/12/27 03:33:53;;;;;;;12.43;4.53;;;4.70;99.90;;;4.29;100.00;99638.06;5167089;28;20061;-66
2021/12/27 03:36:28;;;;;;;10.68;4.57;;;4.60;99.90;;;4.31;100.00;99633.88;5167359;28;20046;-68
2021/12/27 03:39:01;;;;;;;10.88;4.47;;;4.70;99.90;;;4.31;100.00;99634.75;5167216;28;20621;-68
2021/12/27 03:41:34;;;;;;;11.40;4.55;;;4.70;99.90;;;4.30;100.00;99642.41;5166866;28;20057;-68
2021/12/27 03:44:06;;;;;;;12.65;4.60;;;4.70;99.90;;;4.30;100.00;99645.00;5167015;28;20056;-68
2021/12/27 03:46:38;;;;;;;10.95;4.53;;;4.70;99.90;;;4.31;100.00;99641.63;5167146;28;20483;-68
2021/12/27 03:49:10;;;;;;;10.00;4.13;;;4.70;99.90;;;4.36;100.00;99640.09;5166918;28;20061;-68
2021/12/27 03:51:43;;;;;;;12.20;4.78;;;4.70;99.90;;;4.40;100.00;99642.00;5167061;28;20054;-67
2021/12/27 03:54:16;;;;;;;13.85;4.85;;;4.70;99.90;;;4.38;100.00;99640.19;5166551;28;20059;-68
2021/12/27 03:56:48;;;;;;;10.85;4.60;;;4.70;99.90;;;4.39;100.00;99637.66;5166988;28;20050;-68
2021/12/27 03:59:23;;;;;;;14.35;6.20;;;4.70;99.90;;;4.41;100.00;99636.00;5166558;28;20061;-66
2021/12/27 04:01:55;;;;;;;11.80;5.88;;;4.80;99.90;;;4.43;100.00;99628.31;5166524;28;20472;-68
2021/12/27 04:04:27;;;;;;;12.95;5.88;;;4.80;99.90;;;4.44;100.00;99628.41;5166668;28;20050;-67
2021/12/27 04:06:59;;;;;;;15.75;5.95;;;4.80;99.90;;;4.43;100.00;99624.03;5166707;28;20483;-67
2021/12/27 04:09:33;;;;;;;16.25;6.05;;;4.80;99.90;;;4.45;100.00;99627.59;5166286;28;20061;-68
2021/12/27 04:12:06;;;;;;;9.02;4.25;;;4.80;99.90;;;4.43;100.00;99623.16;5166379;28;20046;-68
2021/12/27 04:14:38;;;;;;;11.52;5.50;;;4.80;99.90;;;4.48;100.00;99616.50;5198506;22;20044;-78
2021/12/27 04:17:10;;;;;;;16.20;5.22;;;4.80;99.90;;;4.55;100.00;99618.50;5207832;28;20049;-79
2021/12/27 04:19:42;;;;;;;13.00;6.25;;;4.80;99.90;;;4.57;100.00;99611.72;5209295;28;20053;-79
2021/12/27 04:22:14;;;;;;;11.32;4.95;;;4.90;99.90;;;4.58;100.00;99614.34;5208826;28;20041;-79
2021/12/27 04:24:47;;;;;;;8.02;3.75;;;4.90;99.90;;;4.61;100.00;99609.28;5208636;28;20052;-79
2021/12/27 04:27:20;;;;;;;11.13;5.18;;;4.90;99.90;;;4.60;100.00;99607.53;5204361;22;20499;-72
2021/12/27 04:29:52;;;;;;;18.50;7.75;;;4.90;99.90;;;4.62;100.00;99611.06;5187080;28;20061;-71
2021/12/27 04:32:24;;;;;;;16.85;6.85;;;4.90;99.90;;;4.63;100.00;99614.53;5187925;28;20137;-71
2021/12/27 04:34:56;;;;;;;10.70;4.18;;;4.90;99.90;;;4.59;100.00;99608.38;5186506;28;20050;-72
2021/12/27 04:37:29;;;;;;;11.75;5.35;;;4.90;99.90;;;4.59;100.00;99600.63;5186676;28;20176;-72
2021/12/27 04:40:06;;;;;;;10.88;4.90;;;4.90;99.90;;;4.57;100.00;99607.44;5186039;28;20058;-72
2021/12/27 04:42:41;;;;;;;9.50;4.72;;;4.90;99.90;;;4.58;100.00;99603.16;5185620;28;20056;-72
2021/12/27 04:45:14;;;;;;;11.15;4.53;;;4.90;99.90;;;4.58;100.00;99598.00;5185007;28;20056;-71
2021/12/27 04:47:47;;;;;;;12.02;4.93;;;4.90;99.90;;;4.56;100.00;99597.94;5186047;28;20403;-72
2021/12/27 04:50:19;;;;;;;10.98;4.68;;;4.90;99.90;;;4.56;100.00;99594.44;5185485;28;20050;-71
2021/12/27 04:52:53;;;;;;;16.40;6.38;;;4.90;99.90;;;4.58;100.00;99591.13;5186802;28;20041;-71
2021/12/27 04:55:29;;;;;;;10.32;4.10;;;4.90;99.90;;;4.61;100.00;99593.81;5185290;28;20557;-74
2021/12/27 04:58:02;;;;;;;14.93;7.07;;;4.90;99.90;;;4.62;100.00;99595.56;5185850;28;20436;-74
2021/12/27 05:00:34;;;;;;;9.85;4.60;;;4.90;99.90;;;4.66;100.00;99590.53;5185513;28;20052;-73
2021/12/27 05:03:06;;;;;;;15.88;5.95;;;5.00;99.90;;;4.66;100.00;99588.84;5185327;28;20475;-71
2021/12/27 05:05:42;;;;;;;8.52;3.92;;;5.00;99.90;;;4.69;100.00;99593.22;5184954;28;20054;-72
2021/12/27 05:08:14;;;;;;;;;;;5.00;99.90;;;4.70;100.00;99592.44;5186004;28;20116;-72
2021/12/27 05:10:48;;;;;;;8.32;4.10;;;5.00;99.90;;;4.71;100.00;99576.13;5186346;28;19928;-72
2021/12/27 05:13:20;;;;;;;10.88;3.90;;;5.00;99.90;;;4.71;100.00;99576.13;5184475;28;20498;-71
2021/12/27 05:15:53;;;;;;;12.27;5.15;;;5.00;99.90;;;4.76;100.00;99579.72;5184920;28;20513;-72
2021/12/27 05:18:25;;;;;;;11.60;5.07;;;5.10;99.90;;;4.79;100.00;99569.53;5185189;28;20054;-72
2021/12/27 05:20:57;;;;;;;12.85;4.65;;;5.10;99.90;;;4.78;100.00;99571.25;5185312;28;20046;-72
2021/12/27 05:23:30;;;;;;;12.85;6.35;;;5.10;99.90;;;4.82;100.00;99570.53;5185189;28;20049;-72
2021/12/27 05:26:03;;;;;;;13.10;5.78;;;5.10;99.90;;;4.85;100.00;99567.19;5184671;28;20083;-72
2021/12/27 05:28:36;;;;;;;8.68;4.05;;;5.10;99.90;;;4.86;100.00;99568.94;5186048;28;20046;-71
2021/12/27 05:31:08;;;;;;;11.45;4.50;;;5.10;99.90;;;4.84;100.00;99575.75;5185361;28;20050;-72
2021/12/27 05:33:40;;;;;;;12.57;4.97;;;5.10;99.90;;;4.85;100.00;99574.94;5185066;28;20052;-72
2021/12/27 05:36:13;;;;;;;16.52;8.35;;;5.20;99.90;;;4.87;100.00;99566.41;5184542;28;20057;-72
2021/12/27 05:38:45;;;;;;;11.60;4.40;;;5.10;99.90;;;4.87;100.00;99576.75;5185332;28;20053;-72
2021/12/27 05:41:18;;;;;;;11.82;4.03;;;5.20;99.90;;;4.85;100.00;99567.19;5184783;28;20446;-72
2021/12/27 05:43:50;;;;;;;12.48;4.97;;;5.20;99.90;;;4.84;100.00;99565.44;5184652;28;20056;-71
2021/12/27 05:46:22;;;;;;;9.43;3.90;;;5.20;99.90;;;4.87;100.00;99571.56;5184463;28;20050;-72
2021/12/27 05:48:54;;;;;;;13.43;5.25;;;5.20;99.90;;;4.88;100.00;99567.28;5185883;28;20046;-72
2021/12/27 05:51:26;;;;;;;11.75;4.97;;;5.20;99.90;;;4.85;100.00;99560.31;5184912;28;20502;-71
2021/12/27 05:53:58;;;;;;;10.60;4.28;;;5.20;99.90;;;4.89;100.00;99566.50;5184476;28;20431;-73
2021/12/27 05:56:32;;;;;;;12.13;4.53;;;5.20;99.90;;;4.84;100.00;99560.28;5184683;28;20046;-71
2021/12/27 05:59:04;;;;;;;8.45;3.95;;;5.20;99.90;;;4.85;100.00;99551.69;5184824;28;20045;-72
2021/12/27 06:01:36;;;;;;;9.90;4.22;;;5.20;99.90;;;4.83;100.00;99550.78;5184422;28;20056;-72
2021/12/27 06:04:08;;;;;;;10.15;4.68;;;5.20;99.90;;;4.82;100.00;99546.41;5184268;28;20045;-72
2021/12/27 06:06:40;;;;;;;8.90;3.75;;;5.20;99.90;;;4.86;100.00;99553.44;5185155;28;20064;-72
2021/12/27 06:09:12;;;;;;;12.23;4.63;;;5.20;99.90;;;4.84;100.00;99549.94;5185207;28;20395;-71
2021/12/27 06:11:45;;;;;;;9.27;4.22;;;5.20;99.90;;;4.85;100.00;99541.38;5184585;28;20057;-72
2021/12/27 06:14:17;;;;;;;9.98;4.15;;;5.20;99.90;;;4.84;100.00;99550.81;5184049;28;20414;-71
2021/12/27 06:16:49;;;;;;;9.05;4.20;;;5.20;99.90;;;4.83;100.00;99540.44;5184527;28;20046;-71
2021/12/27 06:19:21;;;;;;;9.85;3.70;;;5.20;99.90;;;4.86;100.00;99556.91;5185072;28;20056;-71
2021/12/27 06:21:55;;;;;;;11.50;4.53;;;5.20;99.90;;;4.87;100.00;99545.75;5184557;28;20057;-72
2021/12/27 06:24:27;;;;;;;10.32;4.13;;;5.20;99.90;;;4.86;100.00;99558.63;5185677;28;20052;-72
2021/12/27 06:27:00;;;;;;;9.18;4.32;;;5.20;99.90;;;4.88;100.00;99554.38;5192628;28;20050;-72
2021/12/27 06:29:32;;;;;;;8.43;3.90;;;5.20;99.90;;;4.88;100.00;99546.63;5191758;28;20495;-71
2021/12/27 06:32:05;;;;;;;10.25;4.45;;;5.20;99.90;;;4.88;100.00;99547.50;5191379;28;20526;-71
2021/12/27 06:34:37;;;;;;;10.23;4.07;;;5.20;99.90;;;4.89;100.00;99545.84;5191258;28;20498;-71
2021/12/27 06:37:09;;;;;;;11.68;4.68;;;5.20;99.90;;;4.92;100.00;99545.94;5191220;28;20050;-72
2021/12/27 06:39:41;;;;;;;8.88;4.00;;;5.20;99.90;;;4.91;100.00;99551.94;5191305;28;20046;-71
2021/12/27 06:42:14;;;;;;;9.10;4.10;;;5.20;99.90;;;4.84;100.00;99549.94;5191105;28;20050;-73
2021/12/27 06:44:46;;;;;;;12.75;4.25;;;5.20;99.90;;;4.83;100.00;99556.81;5191755;28;20050;-74
2021/12/27 06:47:22;;;;;;;12.20;5.15;;;5.20;99.90;;;4.83;100.00;99553.34;5192316;28;20053;-73
2021/12/27 06:49:54;;;;;;;12.32;5.55;;;5.20;99.90;;;4.82;100.00;99554.16;5191035;28;20086;-74
2021/12/27 06:52:26;;;;;;;10.77;4.30;;;5.20;99.90;;;4.84;100.00;99558.56;5191509;28;20050;-73
2021/12/27 06:54:58;;;;;;;11.10;4.38;;;5.20;99.90;;;4.83;100.00;99558.53;5191069;28;20045;-73
2021/12/27 06:57:32;;;;;;;9.63;3.50;;;5.10;99.90;;;4.82;100.00;99559.31;5191683;28;20475;-74
2021/12/27 07:00:07;;;;;;;11.50;4.68;;;5.20;99.90;;;4.83;100.00;99553.34;5191284;28;20546;-76
2021/12/27 07:02:40;;;;;;;12.18;5.18;;;5.20;99.90;;;4.85;100.00;99562.03;5190936;28;20064;-76
2021/12/27 07:05:13;;;;;;;8.98;3.70;;;5.20;99.90;;;4.86;100.00;99544.00;5192745;28;20056;-75
2021/12/27 07:07:45;;;;;;;12.45;5.60;;;5.20;99.90;;;4.87;100.00;99537.13;5190867;28;20056;-75
2021/12/27 07:10:19;;;;;;;13.77;5.18;;;5.20;99.90;;;4.87;100.00;99545.75;5190713;28;20056;-76
2021/12/27 07:12:53;;;;;;;10.20;5.15;;;5.20;99.90;;;4.83;100.00;99549.06;5190856;28;20042;-75
2021/12/27 07:15:26;;;;;;;10.95;4.72;;;5.20;99.90;;;4.84;100.00;99555.97;5190660;28;20438;-75
2021/12/27 07:17:58;;;;;;;10.50;5.03;;;5.20;99.90;;;4.85;100.00;99556.88;5190521;28;20487;-75
2021/12/27 07:20:30;;;;;;;10.43;4.35;;;5.20;99.90;;;4.85;100.00;99552.56;5190894;28;20046;-76
2021/12/27 07:23:03;;;;;;;9.45;4.47;;;5.20;99.90;;;4.88;100.00;99569.88;5190668;28;20493;-74
2021/12/27 07:25:35;;;;;;;12.90;6.30;;;5.20;99.90;;;4.83;100.00;99559.41;5189949;28;20479;-71
2021/12/27 07:28:09;;;;;;;11.07;4.53;;;5.20;99.90;;;4.81;100.00;99560.13;5190471;28;20136;-73
2021/12/27 07:30:41;;;;;;;17.58;6.78;;;5.10;99.90;;;4.80;100.00;99563.53;5190520;28;20056;-74
2021/12/27 07:33:13;;;;;;;10.15;4.15;;;5.10;99.90;;;4.82;100.00;99546.41;5190156;28;20067;-74
2021/12/27 07:35:47;;;;;;;10.00;4.13;;;5.10;99.90;;;4.81;100.00;99542.94;5189693;28;20058;-74
2021/12/27 07:38:19;;;;;;;9.43;3.83;;;5.10;99.90;;;4.78;100.00;99544.53;5186687;28;20050;-74
2021/12/27 07:40:51;;;;;;;14.32;5.05;;;5.10;99.90;;;4.73;100.00;99539.19;5188091;28;20045;-74
2021/12/27 07:43:24;;;;;;;11.10;4.18;;;5.10;99.90;;;4.69;100.00;99539.91;5187586;28;20046;-74
2021/12/27 07:45:56;;;;;;;14.23;5.57;;;5.10;99.90;;;4.70;100.00;99545.97;5188253;28;20053;-73
2021/12/27 07:48:29;;;;;;;11.82;4.43;;;5.00;99.90;;;4.66;100.00;99549.25;5187296;28;20487;-73
2021/12/27 07:51:01;;;;;;;13.18;4.47;;;5.00;99.90;;;4.62;100.00;99543.06;5186737;28;20050;-73
2021/12/27 07:53:33;;;;;;;14.30;4.53;;;5.00;99.90;;;4.62;100.00;99532.75;5186576;28;20483;-73
2021/12/27 07:56:06;;;;;;;12.05;4.60;;;5.00;99.90;;;4.62;100.00;99537.91;5176220;28;20429;-73
2021/12/27 07:58:39;;;;;;;11.55;4.40;;;4.90;99.90;;;4.64;100.00;99536.28;5145799;28;20415;-74
2021/12/27 08:01:11;;;;;;;11.10;4.10;;;5.00;99.90;;;4.64;100.00;99525.97;5145990;28;20042;-73
2021/12/27 08:03:44;;;;;;;10.82;3.70;;;5.00;99.90;;;4.68;100.00;99526.94;5145454;28;20043;-71
2021/12/27 08:06:16;;;;;;;10.02;3.45;;;5.00;99.90;;;4.76;100.00;99520.34;5151926;28;20052;-74
2021/12/27 08:08:48;;;;;;;19.85;7.80;;;5.00;99.90;;;4.76;100.00;99520.34;5155708;28;20057;-73
2021/12/27 08:11:20;;;;;;;13.73;5.32;;;5.10;99.90;;;4.77;100.00;99524.72;5151541;28;20053;-74
2021/12/27 08:13:54;;;;;;;10.68;4.32;;;5.10;99.90;;;4.78;100.00;99527.34;5158077;28;20039;-74
2021/12/27 08:16:27;;;;;;;16.20;5.72;;;5.10;99.90;;;4.82;100.00;99525.75;5148480;28;20575;-74
2021/12/27 08:18:59;;;;;;;17.33;6.10;;;5.10;99.90;;;4.86;100.00;99525.06;5145391;28;20055;-76
2021/12/27 08:21:33;;;;;;;11.27;4.47;;;5.20;99.90;;;4.92;100.00;99527.88;5162486;28;20049;-75
2021/12/27 08:24:07;;;;;;;12.00;4.65;;;5.20;99.90;;;4.96;100.00;99529.75;5165011;28;20498;-75
2021/12/27 08:26:39;;;;;;;9.80;4.35;;;5.30;99.90;;;4.96;100.00;99524.59;5152209;28;20050;-76
2021/12/27 08:29:12;;;;;;;11.90;4.82;;;5.30;99.90;;;5.01;100.00;99522.16;5164761;28;20050;-73
2021/12/27 08:31:45;;;;;;;14.38;5.57;;;5.30;99.90;;;5.06;100.00;99523.19;5153428;28;20047;-73
2021/12/27 08:34:17;;;;;;;11.25;4.40;;;5.30;99.90;;;5.10;100.00;99518.22;5144062;28;20039;-73
2021/12/27 08:36:49;;;;;;;11.38;4.35;;;5.40;99.90;;;5.11;100.00;99514.81;5145116;28;20101;-75
2021/12/27 08:39:21;;;;;;;12.93;4.70;;;5.40;99.90;;;5.12;100.00;99506.22;5163603;28;20049;-76
2021/12/27 08:41:53;;;;;;;13.50;5.07;;;5.50;99.90;;;5.18;100.00;99513.31;5164839;28;20046;-76
2021/12/27 08:44:27;;;;;;;11.93;5.22;;;5.50;99.90;;;5.23;100.00;99508.31;5165075;28;20047;-75
2021/12/27 08:46:59;;;;;;;10.70;4.32;;;5.50;99.90;;;5.26;100.00;99504.13;5165773;28;20050;-74
2021/12/27 08:49:31;;;;;;;11.48;4.20;;;5.50;99.90;;;5.28;100.00;99502.50;5164509;28;20046;-73
2021/12/27 08:52:03;;;;;;;9.38;3.97;;;5.60;99.90;;;5.31;100.00;99502.59;5165659;28;20050;-74
2021/12/27 08:54:35;;;;;;;8.88;3.58;;;5.60;99.90;;;5.38;100.00;99503.69;5165037;28;20061;-73
2021/12/27 08:57:09;;;;;;;10.80;4.75;;;5.60;99.90;;;5.35;100.00;99503.59;5165193;28;20052;-71
2021/12/27 08:59:43;;;;;;;12.07;4.50;;;5.60;99.90;;;5.39;100.00;99505.44;5165362;28;20322;-74
2021/12/27 09:02:15;;;;;;;12.88;4.05;;;5.70;99.90;;;5.40;100.00;99502.03;5165163;28;20403;-70
2021/12/27 09:04:47;;;;;;;9.75;4.05;;;5.70;99.90;;;5.39;100.00;99500.25;5164507;28;20140;-70
2021/12/27 09:07:19;;;;;;;14.30;3.97;;;5.70;99.90;;;5.42;100.00;99495.22;5165045;28;20050;-70
2021/12/27 09:09:51;;;;;;;10.75;4.60;;;5.70;99.90;;;5.48;100.00;99498.03;5165138;28;20130;-69
2021/12/27 09:12:23;;;;;;;9.63;3.70;;;5.70;99.90;;;5.56;100.00;99499.16;5164768;28;20050;-70
2021/12/27 09:14:57;;;;;;;12.63;4.38;;;5.80;99.90;;;5.57;100.00;99492.28;5164696;28;20053;-69
2021/12/27 09:17:29;;;;;;;8.77;4.20;;;5.80;99.90;;;5.56;100.00;99499.16;5165016;28;20056;-70
2021/12/27 09:20:01;;;;;;;11.68;4.85;;;5.80;99.90;;;5.56;100.00;99496.56;5164674;28;20054;-70
2021/12/27 09:22:33;;;;;;;13.02;4.43;;;5.80;99.90;;;5.53;100.00;99493.84;5164921;28;20050;-70
2021/12/27 09:25:06;;;;;;;13.68;5.18;;;5.80;99.90;;;5.55;100.00;99497.41;5164019;28;20134;-69
2021/12/27 09:27:38;;;;;;;11.10;4.07;;;5.80;99.90;;;5.51;100.00;99495.53;5164712;28;20491;-69
2021/12/27 09:30:13;;;;;;;11.13;4.70;;;5.90;99.90;;;5.53;100.00;99491.28;5164965;28;20053;-70
2021/12/27 09:32:45;;;;;;;12.02;4.63;;;5.90;99.90;;;5.51;100.00;99485.19;5164334;28;20054;-70
2021/12/27 09:35:17;;;;;;;12.75;4.65;;;5.90;99.90;;;5.52;100.00;99486.06;5164282;28;20050;-70
2021/12/27 09:37:49;;;;;;;10.63;3.97;;;5.90;99.90;;;5.53;100.00;99495.56;5164860;28;20050;-69
2021/12/27 09:40:21;;;;;;;9.95;4.05;;;5.90;99.90;;;5.55;100.00;99491.34;5164405;28;20052;-69
2021/12/27 09:42:54;;;;;;;9.48;4.13;;;5.90;99.90;;;5.56;100.00;99493.97;5164479;28;20688;-69
2021/12/27 09:45:28;;;;;;;10.10;3.92;;;5.90;99.90;;;5.61;100.00;99492.44;5164014;28;20047;-69
2021/12/27 09:48:00;;;;;;;11.43;4.53;;;5.90;99.90;;;5.63;100.00;99489.91;5164471;28;20050;-69
2021/12/27 09:50:37;;;;;;;8.98;4.07;;;5.90;99.90;;;5.70;100.00;99494.44;5164755;28;20491;-69
2021/12/27 09:53:09;;;;;;;11.13;3.85;;;6.00;99.90;;;5.78;100.00;99495.56;5164462;28;20057;-69
2021/12/27 09:55:41;;;;;;;9.98;4.43;;;6.00;99.90;;;5.76;100.00;99501.53;5163889;28;20050;-69
2021/12/27 09:58:13;;;;;;;10.55;4.38;;;6.00;99.90;;;5.82;100.00;99497.44;5164439;28;20061;-69
2021/12/27 10:00:47;;;;;;;9.23;3.47;;;6.00;99.90;;;5.82;100.00;99499.16;5163880;28;20052;-70
2021/12/27 10:03:19;;;;;;;10.63;4.22;;;6.10;99.90;;;5.86;100.00;99488.94;5164537;28;20046;-69
2021/12/27 10:05:51;;;;;;;9.13;4.00;;;6.10;99.90;;;5.87;100.00;99472.63;5163489;28;20046;-70
2021/12/27 10:08:23;;;;;;;9.80;4.32;;;6.10;99.90;;;6.02;100.00;99461.91;5164331;28;20406;-71
2021/12/27 10:10:59;;;;;;;9.20;3.75;;;6.20;99.90;;;6.19;100.00;99457.25;5164455;28;20089;-72
2021/12/27 10:13:31;;;;;;;9.70;3.70;;;6.30;99.90;;;6.25;100.00;99447.94;5164278;28;20096;-69
2021/12/27 10:16:05;;;;;;;7.38;3.67;;;6.40;99.90;;;6.39;100.00;99461.34;5233073;22;20045;-69
2021/12/27 10:18:39;;;;;;;8.35;3.72;;;6.50;99.90;;;6.51;100.00;99453.91;5183196;28;20417;-69
2021/12/27 10:21:15;;;;;;;9.18;4.18;;;6.60;99.90;;;6.56;100.00;99458.38;5183941;28;20065;-69
2021/12/27 10:23:47;;;;;;;8.73;3.83;;;6.70;99.90;;;6.78;100.00;99461.63;5183751;28;20072;-69
2021/12/27 10:26:19;;;;;;;9.48;4.40;;;6.80;99.90;;;7.04;100.00;99464.03;5183990;28;20407;-69
2021/12/27 10:29:07;;;;;;;8.10;3.40;;;7.00;99.90;;;7.17;100.00;99461.00;5184218;28;20054;-70
2021/12/27 10:32:04;;;;;;;12.18;4.25;;;7.10;99.90;;;7.19;100.00;99455.84;5183903;28;20410;-69
2021/12/27 10:34:39;;;;;;;8.07;3.60;;;7.20;99.90;;;7.23;100.00;99448.16;5183794;28;20049;-69
2021/12/27 10:37:20;;;;;;;7.18;3.45;;;7.30;99.90;;;7.27;100.00;99446.53;5183622;28;20058;-69
2021/12/27 10:39:59;;;;;;;7.70;3.38;;;7.30;99.90;;;7.38;100.00;99442.53;5183837;28;20050;-69
2021/12/27 10:42:35;;;;;;;10.65;4.05;;;7.40;99.90;;;7.30;100.00;99442.34;5183843;28;20055;-69
2021/12/27 10:45:11;;;;;;;6.78;3.10;;;7.40;99.90;;;7.33;100.00;99439.81;5183457;28;20192;-69